createdAt,value
2018-02-19T00:01:25.186Z,85.13
2018-02-19T00:03:52.660Z,98.17
2018-02-19T00:06:20.145Z,82.57
2018-02-19T00:08:47.722Z,93.53
2018-02-19T00:11:15.205Z,89.03
2018-02-19T00:13:43.438Z,97.30
2018-02-19T00:16:10.933Z,73.60
2018-02-19T00:18:39.175Z,81.47
2018-02-19T00:21:06.670Z,58.17
2018-02-19T00:23:34.929Z,57.87
2018-02-19T00:26:02.430Z,65.90
2018-02-19T00:28:29.918Z,69.60
2018-02-19T00:30:57.410Z,64.70
2018-02-19T00:33:24.878Z,72.47
2018-02-19T00:35:52.433Z,57.93
2018-02-19T00:38:19.920Z,63.93
2018-02-19T00:40:47.420Z,69.07
2018-02-19T00:43:15.246Z,62.03
2018-02-19T00:45:42.735Z,69.40
2018-02-19T00:48:10.250Z,63.03
2018-02-19T00:50:38.491Z,71.87
2018-02-19T00:53:05.991Z,72.87
2018-02-19T00:55:33.502Z,89.60
2018-02-19T00:58:01.014Z,64.67
2018-02-19T01:00:29.250Z,72.93
2018-02-19T01:02:56.733Z,74.27
2018-02-19T01:05:24.974Z,69.67
2018-02-19T01:07:52.495Z,77.30
2018-02-19T01:10:19.974Z,72.70
2018-02-19T01:12:47.429Z,74.10
2018-02-19T01:15:14.962Z,76.67
2018-02-19T01:17:42.508Z,69.17
2018-02-19T01:20:10.804Z,69.63
2018-02-19T01:22:38.414Z,76.43
2018-02-19T01:25:05.954Z,78.70
2018-02-19T01:27:33.434Z,78.70
2018-02-19T01:30:00.979Z,70.57
2018-02-19T01:32:28.453Z,75.40
2018-02-19T01:34:55.976Z,66.67
2018-02-19T01:37:23.455Z,79.00
2018-02-19T01:39:50.970Z,63.07
2018-02-19T01:42:19.250Z,90.27
2018-02-19T01:44:46.742Z,77.87
2018-02-19T01:47:14.268Z,82.60
2018-02-19T01:52:48.255Z,77.83
2018-02-19T01:55:15.746Z,76.93
2018-02-19T01:57:43.995Z,81.47
2018-02-19T02:00:12.321Z,91.93
2018-02-19T02:02:39.823Z,68.27
2018-02-19T02:05:07.299Z,82.27
2018-02-19T02:07:35.555Z,80.60
2018-02-19T02:10:03.054Z,76.37
2018-02-19T02:12:30.588Z,83.07
2018-02-19T02:14:58.059Z,66.60
2018-02-19T02:17:26.326Z,73.70
2018-02-19T02:19:53.801Z,76.80
2018-02-19T02:22:22.063Z,78.17
2018-02-19T02:24:49.550Z,74.57
2018-02-19T02:27:17.040Z,78.00
2018-02-19T02:29:44.530Z,81.20
2018-02-19T02:32:12.020Z,76.50
2018-02-19T02:34:40.305Z,77.77
2018-02-19T02:37:07.814Z,74.67
2018-02-19T02:39:35.344Z,83.23
2018-02-19T02:42:02.854Z,69.97
2018-02-19T02:44:30.340Z,63.87
2018-02-19T02:46:57.835Z,82.97
2018-02-19T02:49:25.324Z,74.63
2018-02-19T02:51:52.820Z,77.40
2018-02-19T02:54:20.319Z,81.87
2018-02-19T02:56:47.810Z,79.10
2018-02-19T02:59:16.076Z,87.80
2018-02-19T03:01:43.561Z,86.27
2018-02-19T03:04:11.821Z,76.87
2018-02-19T03:06:39.314Z,89.27
2018-02-19T03:09:06.797Z,90.83
2018-02-19T03:11:34.290Z,99.87
2018-02-19T03:14:02.570Z,86.23
2018-02-19T03:16:30.050Z,93.47
2018-02-19T03:18:58.302Z,102.07
2018-02-19T03:21:25.950Z,93.90
2018-02-19T03:23:53.419Z,100.13
2018-02-19T03:26:20.926Z,93.13
2018-02-19T03:28:48.427Z,97.50
2018-02-19T03:31:15.916Z,89.40
2018-02-19T03:33:44.165Z,89.73
2018-02-19T03:36:11.709Z,83.70
2018-02-19T03:38:39.186Z,90.17
2018-02-19T03:41:06.693Z,86.60
2018-02-19T03:43:34.192Z,70.33
2018-02-19T03:46:01.709Z,77.53
2018-02-19T03:48:29.180Z,84.73
2018-02-19T03:50:56.682Z,101.23
2018-02-19T03:53:24.167Z,96.83
2018-02-19T03:55:52.449Z,95.73
2018-02-19T03:58:19.922Z,76.43
2018-02-19T04:00:47.431Z,86.50
2018-02-19T04:03:14.940Z,91.77
2018-02-19T04:05:42.434Z,75.00
2018-02-19T04:08:09.939Z,84.17
2018-02-19T04:10:38.208Z,70.00
2018-02-19T04:13:05.683Z,76.27
2018-02-19T04:15:33.769Z,88.60
2018-02-19T04:18:01.262Z,72.33
2018-02-19T04:20:28.759Z,80.13
2018-02-19T04:22:57.029Z,68.77
2018-02-19T04:25:24.514Z,87.80
2018-02-19T04:27:51.998Z,72.13
2018-02-19T04:30:19.566Z,82.17
2018-02-19T04:32:47.061Z,66.13
2018-02-19T04:35:14.552Z,75.57
2018-02-19T04:37:42.123Z,75.67
2018-02-19T04:40:09.604Z,65.43
2018-02-19T04:42:37.101Z,77.50
2018-02-19T04:45:23.890Z,67.30
2018-02-19T04:47:51.410Z,65.23
2018-02-19T04:50:18.902Z,72.60
2018-02-19T04:52:46.375Z,78.20
2018-02-19T04:55:13.881Z,75.70
2018-02-19T04:57:41.543Z,76.30
2018-02-19T05:00:09.085Z,77.80
2018-02-19T05:02:37.370Z,64.73
2018-02-19T05:05:04.858Z,73.43
2018-02-19T05:07:32.358Z,93.23
2018-02-19T05:09:59.856Z,74.87
2018-02-19T05:12:27.334Z,72.17
2018-02-19T05:14:54.843Z,72.57
2018-02-19T05:17:22.327Z,82.50
2018-02-19T05:19:49.856Z,74.00
2018-02-19T05:22:17.367Z,60.33
2018-02-19T05:24:45.234Z,77.87
2018-02-19T05:27:12.759Z,71.97
2018-02-19T05:29:41.034Z,66.80
2018-02-19T05:32:09.311Z,72.43
2018-02-19T05:34:36.790Z,59.53
2018-02-19T05:37:04.291Z,56.77
2018-02-19T05:39:31.761Z,81.27
2018-02-19T05:41:59.324Z,63.70
2018-02-19T05:44:26.800Z,66.73
2018-02-19T05:46:55.095Z,66.57
2018-02-19T05:49:23.351Z,61.90
2018-02-19T05:51:50.896Z,72.00
2018-02-19T05:54:18.387Z,53.67
2018-02-19T05:56:45.882Z,57.13
2018-02-19T05:59:13.395Z,57.87
2018-02-19T06:01:41.666Z,56.43
2018-02-19T06:04:09.142Z,57.90
2018-02-19T06:06:37.399Z,55.33
2018-02-19T06:09:05.656Z,63.67
2018-02-19T06:11:33.131Z,59.17
2018-02-19T06:14:00.622Z,59.03
2018-02-19T06:16:28.101Z,59.03
2018-02-19T06:18:55.608Z,62.00
2018-02-19T06:21:23.076Z,73.20
2018-02-19T06:23:51.328Z,70.70
2018-02-19T06:26:19.002Z,65.30
2018-02-19T06:28:46.716Z,56.80
2018-02-19T06:31:14.234Z,64.93
2018-02-19T06:33:42.538Z,65.20
2018-02-19T06:36:10.023Z,70.43
2018-02-19T06:38:37.513Z,57.53
2018-02-19T06:41:05.019Z,74.77
2018-02-19T06:43:32.532Z,60.13
2018-02-19T06:46:00.019Z,68.73
2018-02-19T06:48:28.314Z,68.63
2018-02-19T06:50:55.796Z,78.93
2018-02-19T06:53:23.294Z,68.50
2018-02-19T06:55:51.532Z,80.87
2018-02-19T06:58:19.022Z,69.40
2018-02-19T07:00:46.522Z,63.83
2018-02-19T07:03:14.020Z,66.03
2018-02-19T07:05:41.516Z,76.60
2018-02-19T07:08:09.772Z,61.80
2018-02-19T07:10:37.305Z,65.90
2018-02-19T07:13:04.831Z,55.53
2018-02-19T07:15:32.732Z,64.30
2018-02-19T07:18:01.187Z,63.63
2018-02-19T07:20:30.541Z,49.70
2018-02-19T07:22:58.027Z,59.40
2018-02-19T07:25:26.377Z,58.77
2018-02-19T07:27:53.859Z,59.73
2018-02-19T07:30:22.120Z,53.87
2018-02-19T07:32:49.633Z,59.30
2018-02-19T07:35:17.146Z,88.40
2018-02-19T07:37:44.643Z,64.63
2018-02-19T07:40:12.127Z,61.27
2018-02-19T07:42:39.614Z,69.47
2018-02-19T07:45:07.109Z,67.17
2018-02-19T07:47:34.612Z,53.13
2018-02-19T07:50:02.110Z,65.97
2018-02-19T07:52:30.372Z,64.97
2018-02-19T07:54:57.848Z,65.83
2018-02-19T07:57:26.110Z,64.43
2018-02-19T07:59:53.624Z,59.60
2018-02-19T08:02:21.127Z,63.40
2018-02-19T08:04:48.618Z,52.17
2018-02-19T08:07:16.158Z,59.83
2018-02-19T08:09:44.423Z,53.93
2018-02-19T08:12:11.996Z,45.97
2018-02-19T08:14:40.264Z,59.77
2018-02-19T08:17:07.758Z,56.47
2018-02-19T08:19:35.247Z,57.73
2018-02-19T08:22:03.533Z,55.80
2018-02-19T08:24:32.066Z,57.10
2018-02-19T08:26:59.572Z,63.30
2018-02-19T08:29:27.822Z,61.13
2018-02-19T08:31:55.329Z,54.63
2018-02-19T08:34:22.847Z,56.23
2018-02-19T08:36:50.374Z,60.30
2018-02-19T08:39:18.664Z,52.73
2018-02-19T08:41:46.163Z,64.97
2018-02-19T08:44:13.669Z,59.23
2018-02-19T08:46:45.057Z,60.60
2018-02-19T08:49:12.581Z,56.17
2018-02-19T08:51:40.858Z,55.23
2018-02-19T08:54:08.345Z,60.70
2018-02-19T08:56:35.983Z,48.77
2018-02-19T08:59:03.495Z,55.37
2018-02-19T09:01:31.001Z,52.67
2018-02-19T09:03:59.241Z,53.13
2018-02-19T09:06:26.746Z,54.33
2018-02-19T09:08:54.227Z,51.70
2018-02-19T09:11:22.253Z,57.13
2018-02-19T09:13:50.522Z,54.60
2018-02-19T09:16:18.802Z,60.63
2018-02-19T09:18:47.078Z,52.17
2018-02-19T09:21:15.355Z,53.73
2018-02-19T09:23:42.874Z,60.73
2018-02-19T09:26:10.382Z,66.83
2018-02-19T09:28:38.616Z,58.07
2018-02-19T09:31:06.257Z,63.23
2018-02-19T09:33:33.837Z,50.13
2018-02-19T09:36:01.394Z,54.63
2018-02-19T09:38:28.894Z,56.60
2018-02-19T09:40:57.467Z,64.83
2018-02-19T09:43:24.980Z,55.97
2018-02-19T09:45:52.471Z,56.27
2018-02-19T09:48:19.957Z,64.40
2018-02-19T09:50:48.204Z,51.97
2018-02-19T09:53:15.730Z,56.90
2018-02-19T09:55:43.209Z,46.40
2018-02-19T09:58:10.727Z,55.57
2018-02-19T10:00:38.234Z,51.70
2018-02-19T10:03:05.742Z,53.70
2018-02-19T10:05:34.078Z,51.93
2018-02-19T10:08:01.598Z,58.63
2018-02-19T10:10:29.076Z,50.40
2018-02-19T10:12:56.550Z,60.00
2018-02-19T10:15:24.093Z,59.43
2018-02-19T10:17:51.551Z,68.57
2018-02-19T10:20:19.110Z,53.63
2018-02-19T10:22:46.619Z,57.50
2018-02-19T10:25:14.114Z,61.30
2018-02-19T10:27:41.595Z,50.20
2018-02-19T10:30:09.102Z,52.57
2018-02-19T10:32:37.412Z,67.97
2018-02-19T10:35:04.958Z,61.33
2018-02-19T10:37:32.434Z,57.80
2018-02-19T10:39:59.932Z,52.70
2018-02-19T10:42:27.436Z,53.77
2018-02-19T10:44:55.705Z,57.93
2018-02-19T10:47:23.963Z,63.63
2018-02-19T10:49:51.454Z,60.00
2018-02-19T10:52:18.967Z,52.60
2018-02-19T10:54:46.462Z,55.30
2018-02-19T10:57:14.725Z,54.63
2018-02-19T10:59:43.015Z,55.00
2018-02-19T11:02:11.325Z,56.43
2018-02-19T11:04:38.795Z,64.30
2018-02-19T11:07:06.288Z,61.80
2018-02-19T11:09:33.771Z,55.73
2018-02-19T11:12:02.050Z,63.30
2018-02-19T11:14:30.603Z,57.77
2018-02-19T11:16:58.874Z,68.60
2018-02-19T11:19:26.374Z,53.83
2018-02-19T11:21:53.911Z,62.03
2018-02-19T11:24:22.173Z,58.63
2018-02-19T11:26:49.651Z,61.70
2018-02-19T11:29:17.914Z,54.57
2018-02-19T11:31:45.411Z,56.73
2018-02-19T11:34:12.902Z,53.00
2018-02-19T11:36:40.485Z,55.33
2018-02-19T11:39:07.968Z,64.27
2018-02-19T11:41:36.247Z,56.83
2018-02-19T11:44:04.531Z,50.47
2018-02-19T11:46:32.796Z,71.43
2018-02-19T11:49:01.054Z,55.53
2018-02-19T11:51:28.559Z,55.20
2018-02-19T11:53:56.063Z,53.30
2018-02-19T11:56:23.576Z,55.70
2018-02-19T11:58:51.151Z,54.93
2018-02-19T12:01:18.616Z,49.60
2018-02-19T12:03:46.147Z,57.10
2018-02-19T12:06:13.655Z,53.73
2018-02-19T12:08:41.142Z,54.57
2018-02-19T12:11:08.647Z,44.83
2018-02-19T12:13:36.159Z,56.80
2018-02-19T12:16:04.414Z,53.43
2018-02-19T12:18:31.914Z,58.70
2018-02-19T12:20:59.438Z,49.60
2018-02-19T12:23:26.934Z,51.70
2018-02-19T12:25:54.427Z,55.23
2018-02-19T12:28:21.958Z,53.30
2018-02-19T12:30:49.438Z,67.03
2018-02-19T12:33:21.928Z,50.77
2018-02-19T12:35:49.403Z,57.80
2018-02-19T12:38:16.938Z,59.00
2018-02-19T12:40:44.422Z,58.60
2018-02-19T12:43:11.927Z,52.00
2018-02-19T12:45:39.408Z,51.30
2018-02-19T12:48:06.904Z,57.20
2018-02-19T12:50:34.391Z,61.83
2018-02-19T12:53:02.624Z,60.93
2018-02-19T12:55:30.114Z,69.90
2018-02-19T12:57:58.468Z,68.53
2018-02-19T13:00:26.002Z,85.47
2018-02-19T13:02:53.492Z,77.43
2018-02-19T13:05:21.014Z,61.27
2018-02-19T13:07:48.504Z,60.20
2018-02-19T13:10:16.098Z,61.67
2018-02-19T13:12:44.338Z,70.13
2018-02-19T13:15:12.300Z,58.90
2018-02-19T13:17:40.627Z,54.03
2018-02-19T13:20:08.988Z,66.77
2018-02-19T13:22:36.539Z,57.80
2018-02-19T13:25:04.026Z,56.30
2018-02-19T13:27:31.530Z,67.60
2018-02-19T13:29:59.014Z,53.03
2018-02-19T13:32:26.537Z,59.80
2018-02-19T13:34:54.011Z,56.03
2018-02-19T13:37:21.605Z,67.50
2018-02-19T13:39:49.097Z,68.57
2018-02-19T13:42:16.596Z,66.70
2018-02-19T13:44:44.090Z,59.30
2018-02-19T13:47:12.542Z,56.37
2018-02-19T13:49:40.250Z,61.70
2018-02-19T13:52:08.512Z,54.77
2018-02-19T13:54:36.770Z,51.00
2018-02-19T13:57:05.252Z,56.50
2018-02-19T13:59:33.712Z,65.63
2018-02-19T14:02:01.196Z,57.70
2018-02-19T14:04:28.747Z,58.10
2018-02-19T14:06:56.246Z,61.30
2018-02-19T14:09:24.542Z,56.43
2018-02-19T14:11:52.050Z,73.97
2018-02-19T14:14:19.836Z,50.97
2018-02-19T14:16:47.595Z,62.47
2018-02-19T14:19:15.085Z,67.67
2018-02-19T14:21:42.618Z,69.83
2018-02-19T14:24:10.126Z,64.97
2018-02-19T14:26:37.628Z,55.97
2018-02-19T14:29:05.148Z,56.60
2018-02-19T14:31:32.769Z,58.07
2018-02-19T14:34:03.267Z,66.53
2018-02-19T14:36:30.737Z,69.43
2018-02-19T14:38:58.232Z,59.37
2018-02-19T14:41:25.773Z,63.83
2018-02-19T14:43:54.047Z,61.20
2018-02-19T14:46:22.383Z,59.87
2018-02-19T14:48:49.895Z,62.10
2018-02-19T14:51:17.416Z,69.70
2018-02-19T14:53:44.870Z,58.07
2018-02-19T14:56:12.534Z,64.07
2018-02-19T14:58:40.039Z,61.30
2018-02-19T15:01:07.586Z,74.07
2018-02-19T15:03:35.886Z,60.43
2018-02-19T15:06:03.367Z,64.70
2018-02-19T15:10:58.863Z,54.67
2018-02-19T15:13:27.138Z,61.60
2018-02-19T15:15:55.389Z,53.00
2018-02-19T15:18:22.891Z,57.00
2018-02-19T15:20:50.385Z,59.80
2018-02-19T15:23:17.885Z,55.10
2018-02-19T15:25:45.374Z,63.40
2018-02-19T15:28:12.888Z,62.83
2018-02-19T15:30:40.377Z,60.00
2018-02-19T15:33:07.879Z,53.93
2018-02-19T15:35:35.394Z,58.70
2018-02-19T15:38:03.687Z,52.63
2018-02-19T15:40:31.196Z,60.40
2018-02-19T15:42:58.710Z,52.33
2018-02-19T15:45:26.210Z,68.47
2018-02-19T15:47:53.711Z,60.23
2018-02-19T15:50:21.240Z,49.43
2018-02-19T15:52:49.498Z,50.07
2018-02-19T15:55:16.997Z,64.80
2018-02-19T15:57:45.263Z,57.73
2018-02-19T16:00:13.611Z,59.93
2018-02-19T16:02:41.119Z,59.73
2018-02-19T16:05:09.381Z,59.47
2018-02-19T16:07:37.719Z,62.93
2018-02-19T16:10:05.223Z,57.67
2018-02-19T16:12:32.714Z,65.03
2018-02-19T16:15:00.267Z,55.20
2018-02-19T16:17:27.849Z,56.07
2018-02-19T16:19:55.690Z,49.70
2018-02-19T16:22:23.193Z,62.13
2018-02-19T16:24:50.702Z,64.97
2018-02-19T16:27:18.197Z,58.20
2018-02-19T16:29:45.698Z,64.50
2018-02-19T16:32:13.951Z,82.57
2018-02-19T16:34:41.516Z,52.00
2018-02-19T16:37:09.003Z,59.20
2018-02-19T16:39:39.200Z,65.27
2018-02-19T16:42:08.686Z,67.53
2018-02-19T16:44:36.583Z,59.03
2018-02-19T16:47:04.092Z,56.27
2018-02-19T16:49:31.635Z,68.63
2018-02-19T16:51:59.118Z,74.67
2018-02-19T16:54:26.636Z,62.53
2018-02-19T16:56:54.171Z,58.37
2018-02-19T16:59:21.649Z,62.37
2018-02-19T17:01:49.159Z,57.27
2018-02-19T17:04:16.709Z,61.77
2018-02-19T17:06:44.214Z,59.37
2018-02-19T17:09:12.505Z,80.27
2018-02-19T17:11:40.778Z,55.70
2018-02-19T17:14:09.093Z,58.87
2018-02-19T17:16:36.615Z,71.07
2018-02-19T17:19:05.009Z,72.07
2018-02-19T17:21:32.516Z,67.90
2018-02-19T17:24:00.006Z,53.27
2018-02-19T17:26:27.543Z,56.77
2018-02-19T17:28:55.023Z,61.93
2018-02-19T17:31:22.510Z,71.13
2018-02-19T17:33:50.772Z,58.77
2018-02-19T17:36:18.271Z,65.53
2018-02-19T17:38:45.804Z,57.23
2018-02-19T17:41:13.330Z,60.60
2018-02-19T17:43:40.847Z,73.43
2018-02-19T17:46:08.347Z,54.63
2018-02-19T17:48:35.856Z,73.97
2018-02-19T17:51:03.403Z,73.60
2018-02-19T17:53:30.918Z,63.63
2018-02-19T17:55:58.541Z,61.50
2018-02-19T17:58:26.031Z,56.67
2018-02-19T18:00:53.597Z,59.53
2018-02-19T18:03:21.103Z,54.50
2018-02-19T18:05:48.595Z,57.30
2018-02-19T18:08:16.064Z,67.00
2018-02-19T18:10:43.566Z,59.30
2018-02-19T18:13:11.828Z,67.60
2018-02-19T18:15:39.330Z,60.03
2018-02-19T18:18:06.810Z,60.33
2018-02-19T18:20:34.331Z,56.07
2018-02-19T18:23:01.850Z,50.50
2018-02-19T18:25:29.338Z,60.57
2018-02-19T18:27:57.692Z,59.87
2018-02-19T18:30:25.219Z,74.87
2018-02-19T18:32:53.011Z,62.03
2018-02-19T18:35:20.582Z,60.43
2018-02-19T18:37:48.079Z,58.70
2018-02-19T18:40:16.346Z,52.80
2018-02-19T18:42:44.640Z,64.20
2018-02-19T18:45:12.683Z,68.80
2018-02-19T18:47:40.189Z,58.93
2018-02-19T18:50:07.714Z,60.93
2018-02-19T18:52:35.990Z,59.60
2018-02-19T18:55:04.158Z,48.73
2018-02-19T18:57:32.910Z,66.20
2018-02-19T19:00:00.402Z,61.00
2018-02-19T19:02:29.733Z,64.27
2018-02-19T19:04:57.220Z,56.10
2018-02-19T19:07:36.477Z,63.77
2018-02-19T19:10:15.715Z,61.33
2018-02-19T19:12:43.203Z,56.13
2018-02-19T19:15:10.749Z,61.87
2018-02-19T19:17:38.251Z,59.00
2018-02-19T19:20:05.756Z,69.17
2018-02-19T19:22:33.287Z,59.30
2018-02-19T19:25:00.930Z,66.73
2018-02-19T19:27:28.534Z,64.00
2018-02-19T19:29:56.044Z,80.60
2018-02-19T19:32:23.547Z,85.83
2018-02-19T19:34:51.033Z,67.37
2018-02-19T19:37:19.286Z,69.07
2018-02-19T19:39:46.805Z,77.13
2018-02-19T19:42:14.502Z,69.90
2018-02-19T19:44:41.992Z,71.93
2018-02-19T19:47:10.250Z,63.07
2018-02-19T19:49:37.762Z,82.53
2018-02-19T19:52:05.243Z,71.67
2018-02-19T19:54:32.747Z,66.17
2018-02-19T19:57:01.037Z,66.47
2018-02-19T19:59:29.287Z,73.30
2018-02-19T20:01:57.842Z,82.17
2018-02-19T20:04:25.807Z,66.60
2018-02-19T20:06:53.372Z,77.83
2018-02-19T20:09:20.888Z,78.53
2018-02-19T20:11:50.304Z,73.07
2018-02-19T20:14:17.826Z,58.27
2018-02-19T20:16:45.412Z,62.67
2018-02-19T20:19:13.255Z,72.57
2018-02-19T20:21:40.810Z,79.83
2018-02-19T20:24:08.293Z,61.43
2018-02-19T20:26:35.783Z,75.10
2018-02-19T20:29:03.299Z,60.33
2018-02-19T20:31:31.879Z,74.03
2018-02-19T20:34:00.217Z,67.03
2018-02-19T20:36:28.569Z,61.20
2018-02-19T20:38:56.065Z,59.60
2018-02-19T20:41:23.542Z,56.87
2018-02-19T20:43:51.108Z,64.97
2018-02-19T20:46:18.613Z,56.80
2018-02-19T20:48:46.772Z,58.77
2018-02-19T20:51:14.264Z,57.60
2018-02-19T20:53:41.775Z,56.73
2018-02-19T20:56:10.100Z,64.60
2018-02-19T20:58:37.771Z,59.00
2018-02-19T21:01:05.258Z,58.43
2018-02-19T21:03:32.786Z,58.40
2018-02-19T21:06:01.064Z,52.97
2018-02-19T21:08:28.575Z,66.87
2018-02-19T21:10:56.839Z,76.07
2018-02-19T21:13:24.321Z,72.27
2018-02-19T21:15:52.599Z,55.23
2018-02-19T21:18:20.077Z,61.63
2018-02-19T21:20:47.577Z,59.00
2018-02-19T21:23:15.082Z,59.87
2018-02-19T21:25:42.614Z,64.77
2018-02-19T21:28:10.119Z,48.80
2018-02-19T21:30:37.743Z,53.10
2018-02-19T21:33:05.245Z,56.63
2018-02-19T21:35:33.359Z,61.77
2018-02-19T21:38:00.891Z,56.07
2018-02-19T21:40:28.377Z,71.23
2018-02-19T21:42:55.870Z,63.20
2018-02-19T21:45:23.338Z,66.07
2018-02-19T21:47:50.891Z,65.93
2018-02-19T21:50:19.159Z,65.47
2018-02-19T21:52:47.425Z,56.57
2018-02-19T21:55:15.668Z,64.10
2018-02-19T21:57:43.162Z,62.93
2018-02-19T22:00:11.421Z,72.17
2018-02-19T22:02:38.903Z,55.00
2018-02-19T22:05:07.173Z,56.03
2018-02-19T22:07:35.528Z,57.77
2018-02-19T22:10:03.029Z,56.70
2018-02-19T22:12:31.289Z,58.80
2018-02-19T22:14:59.558Z,54.70
2018-02-19T22:17:27.045Z,63.50
2018-02-19T22:19:54.531Z,61.40
2018-02-19T22:22:22.180Z,58.77
2018-02-19T22:24:50.248Z,58.83
2018-02-19T22:27:17.732Z,57.83
2018-02-19T22:29:45.226Z,61.63
2018-02-19T22:32:13.976Z,68.07
2018-02-19T22:34:41.473Z,55.37
2018-02-19T22:37:08.979Z,54.10
2018-02-19T22:39:36.497Z,72.50
2018-02-19T22:42:04.983Z,64.17
2018-02-19T22:44:32.433Z,67.17
2018-02-19T22:46:59.912Z,58.00
2018-02-19T22:49:27.401Z,60.13
2018-02-19T22:51:55.203Z,59.27
2018-02-19T22:54:22.680Z,55.93
2018-02-19T22:56:50.927Z,59.50
2018-02-19T22:59:18.405Z,66.80
2018-02-19T23:01:45.890Z,76.73
2018-02-19T23:04:13.400Z,69.30
2018-02-19T23:06:40.897Z,71.90
2018-02-19T23:09:09.153Z,62.70
2018-02-19T23:11:36.658Z,73.90
2018-02-19T23:14:04.149Z,79.40
2018-02-19T23:16:31.663Z,65.93
2018-02-19T23:18:59.294Z,79.37
2018-02-19T23:21:26.782Z,64.10
2018-02-19T23:23:54.275Z,66.87
2018-02-19T23:26:21.766Z,77.93
2018-02-19T23:28:49.262Z,63.40
2018-02-19T23:31:16.731Z,60.97
2018-02-19T23:33:44.228Z,71.83
2018-02-19T23:36:11.712Z,64.50
2018-02-19T23:38:39.219Z,63.13
2018-02-19T23:41:06.717Z,79.90
2018-02-19T23:43:34.198Z,71.60
2018-02-19T23:46:02.443Z,69.30
2018-02-19T23:48:29.940Z,71.43
2018-02-19T23:50:57.415Z,77.90
2018-02-19T23:53:24.886Z,64.57
2018-02-19T23:55:52.376Z,78.87
2018-02-19T23:58:19.854Z,75.23
